Terminal Aerodrome Forecast
Issued by NWS

Home | Current Version | Previous Version | Text Only | Print | Product List | Glossary On
Versions: 1 2 3 4 5 6 7 8 9 10 11 12 13 14 15
515
FTUS42 KMLB 162325
TAFTIX
TAF
KTIX 162325Z 1700/1724 23003KT P6SM BKN120
     FM171400 24004KT P6SM FEW030 SCT250
     FM171700 13008KT P6SM VCTS SCT030CB BKN100
     FM172100 16006KT P6SM SCT030 BKN120
      AMD NOT SKED 1701/1711=

USA.gov is the U.S. government's official web portal to all federal, state and local government web resources and services.